sensor_id;sensor_type;location;lat;lon;timestamp;pressure;altitude;pressure_sealevel;temperature;humidity
5500;BME280;2772;42.700;23.304;2022-09-16T00:00:34;94592.97;;;22.84;96.62
5500;BME280;2772;42.700;23.304;2022-09-16T00:03:01;94622.50;;;22.82;96.81
5500;BME280;2772;42.700;23.304;2022-09-16T00:05:28;94608.19;;;22.71;98.16
5500;BME280;2772;42.700;23.304;2022-09-16T00:07:55;94611.66;;;22.75;97.49
5500;BME280;2772;42.700;23.304;2022-09-16T00:10:22;94601.19;;;22.74;97.17
5500;BME280;2772;42.700;23.304;2022-09-16T00:12:49;94621.00;;;22.71;97.31
5500;BME280;2772;42.700;23.304;2022-09-16T00:15:17;94622.13;;;22.73;96.59
5500;BME280;2772;42.700;23.304;2022-09-16T00:17:45;94613.63;;;22.71;96.48
5500;BME280;2772;42.700;23.304;2022-09-16T00:20:12;94617.88;;;22.72;96.56
5500;BME280;2772;42.700;23.304;2022-09-16T00:22:39;94616.69;;;22.73;96.50
5500;BME280;2772;42.700;23.304;2022-09-16T00:25:06;94600.78;;;22.72;97.21
5500;BME280;2772;42.700;23.304;2022-09-16T00:27:33;94604.69;;;22.67;98.27
5500;BME280;2772;42.700;23.304;2022-09-16T00:30:00;94606.25;;;22.68;97.67
5500;BME280;2772;42.700;23.304;2022-09-16T00:32:26;94600.84;;;22.68;97.78
5500;BME280;2772;42.700;23.304;2022-09-16T00:34:55;94607.41;;;22.67;98.97
5500;BME280;2772;42.700;23.304;2022-09-16T00:37:21;94604.31;;;22.69;98.12
5500;BME280;2772;42.700;23.304;2022-09-16T00:39:49;94608.59;;;22.66;98.83
5500;BME280;2772;42.700;23.304;2022-09-16T00:42:16;94600.84;;;22.68;98.35
5500;BME280;2772;42.700;23.304;2022-09-16T00:44:52;94608.97;;;22.68;98.61
5500;BME280;2772;42.700;23.304;2022-09-16T00:47:23;94594.22;;;22.66;99.11
5500;BME280;2772;42.700;23.304;2022-09-16T00:49:53;94603.56;;;22.65;99.72
5500;BME280;2772;42.700;23.304;2022-09-16T00:52:26;94614.41;;;22.68;99.75
5500;BME280;2772;42.700;23.304;2022-09-16T00:54:54;94607.09;;;22.44;100.00
5500;BME280;2772;42.700;23.304;2022-09-16T00:57:21;94617.19;;;22.40;100.00
5500;BME280;2772;42.700;23.304;2022-09-16T00:59:51;94604.78;;;22.43;100.00
5500;BME280;2772;42.700;23.304;2022-09-16T01:02:20;94608.28;;;22.40;100.00
5500;BME280;2772;42.700;23.304;2022-09-16T01:04:52;94606.34;;;22.40;100.00
5500;BME280;2772;42.700;23.304;2022-09-16T01:07:28;94616.03;;;22.45;100.00
5500;BME280;2772;42.700;23.304;2022-09-16T01:09:56;94611.00;;;22.43;100.00
5500;BME280;2772;42.700;23.304;2022-09-16T01:12:23;94611.78;;;22.33;100.00
5500;BME280;2772;42.700;23.304;2022-09-16T01:14:53;94617.59;;;22.32;100.00
5500;BME280;2772;42.700;23.304;2022-09-16T01:17:35;94625.34;;;22.30;100.00
5500;BME280;2772;42.700;23.304;2022-09-16T01:23:40;94623.81;;;22.25;100.00
5500;BME280;2772;42.700;23.304;2022-09-16T01:26:23;94625.00;;;22.28;100.00
5500;BME280;2772;42.700;23.304;2022-09-16T01:29:15;94619.53;;;22.31;100.00
5500;BME280;2772;42.700;23.304;2022-09-16T01:31:49;94623.44;;;22.30;100.00
5500;BME280;2772;42.700;23.304;2022-09-16T01:34:23;94615.28;;;22.30;100.00
5500;BME280;2772;42.700;23.304;2022-09-16T01:36:57;94607.94;;;22.27;100.00
5500;BME280;2772;42.700;23.304;2022-09-16T01:39:35;94610.25;;;22.29;100.00
5500;BME280;2772;42.700;23.304;2022-09-16T01:42:17;94595.91;;;22.28;100.00
5500;BME280;2772;42.700;23.304;2022-09-16T01:44:51;94602.88;;;22.29;100.00
5500;BME280;2772;42.700;23.304;2022-09-16T01:47:26;94604.44;;;22.30;100.00
5500;BME280;2772;42.700;23.304;2022-09-16T01:49:59;94607.16;;;22.27;100.00
5500;BME280;2772;42.700;23.304;2022-09-16T01:52:38;94616.47;;;22.19;100.00
5500;BME280;2772;42.700;23.304;2022-09-16T01:55:09;94613.75;;;22.26;100.00
5500;BME280;2772;42.700;23.304;2022-09-16T01:57:43;94603.28;;;22.28;100.00
5500;BME280;2772;42.700;23.304;2022-09-16T02:00:13;94606.38;;;22.26;100.00
5500;BME280;2772;42.700;23.304;2022-09-16T02:02:46;94598.66;;;22.25;100.00
5500;BME280;2772;42.700;23.304;2022-09-16T02:05:18;94607.22;;;22.02;100.00
5500;BME280;2772;42.700;23.304;2022-09-16T02:07:50;94607.59;;;22.01;100.00
5500;BME280;2772;42.700;23.304;2022-09-16T02:10:21;94604.50;;;21.98;100.00
5500;BME280;2772;42.700;23.304;2022-09-16T02:12:51;94599.47;;;21.97;100.00
5500;BME280;2772;42.700;23.304;2022-09-16T02:15:22;94599.47;;;21.97;100.00
5500;BME280;2772;42.700;23.304;2022-09-16T02:17:55;94611.09;;;22.01;100.00
5500;BME280;2772;42.700;23.304;2022-09-16T02:20:26;94601.00;;;22.02;100.00
5500;BME280;2772;42.700;23.304;2022-09-16T02:22:57;94600.66;;;22.00;100.00
5500;BME280;2772;42.700;23.304;2022-09-16T02:25:26;94595.56;;;22.02;100.00
5500;BME280;2772;42.700;23.304;2022-09-16T02:27:56;94590.56;;;21.97;100.00
5500;BME280;2772;42.700;23.304;2022-09-16T02:30:25;94604.09;;;22.00;100.00
5500;BME280;2772;42.700;23.304;2022-09-16T02:32:55;94600.63;;;21.89;100.00
5500;BME280;2772;42.700;23.304;2022-09-16T02:35:24;94606.44;;;21.87;100.00
5500;BME280;2772;42.700;23.304;2022-09-16T02:37:57;94604.53;;;21.91;100.00
5500;BME280;2772;42.700;23.304;2022-09-16T02:40:28;94601.81;;;21.91;100.00
5500;BME280;2772;42.700;23.304;2022-09-16T02:42:57;94610.72;;;21.92;100.00
5500;BME280;2772;42.700;23.304;2022-09-16T02:45:30;94606.09;;;21.82;100.00
5500;BME280;2772;42.700;23.304;2022-09-16T02:48:08;94601.84;;;21.81;100.00
5500;BME280;2772;42.700;23.304;2022-09-16T02:50:43;94605.69;;;21.73;100.00
5500;BME280;2772;42.700;23.304;2022-09-16T02:53:18;94609.56;;;21.79;100.00
5500;BME280;2772;42.700;23.304;2022-09-16T02:55:52;94600.25;;;21.76;100.00
5500;BME280;2772;42.700;23.304;2022-09-16T02:58:20;94623.09;;;21.72;100.00
5500;BME280;2772;42.700;23.304;2022-09-16T03:00:49;94640.94;;;21.76;100.00
5500;BME280;2772;42.700;23.304;2022-09-16T03:03:18;94633.19;;;21.68;100.00
5500;BME280;2772;42.700;23.304;2022-09-16T03:06:11;94639.38;;;21.72;100.00
5500;BME280;2772;42.700;23.304;2022-09-16T03:08:40;94643.66;;;21.80;100.00
5500;BME280;2772;42.700;23.304;2022-09-16T03:14:06;94651.78;;;21.80;100.00
5500;BME280;2772;42.700;23.304;2022-09-16T03:16:44;94650.63;;;21.88;100.00
5500;BME280;2772;42.700;23.304;2022-09-16T03:19:20;94648.31;;;21.93;100.00
5500;BME280;2772;42.700;23.304;2022-09-16T03:21:56;94659.94;;;21.98;100.00
5500;BME280;2772;42.700;23.304;2022-09-16T03:24:32;94666.88;;;21.98;100.00
5500;BME280;2772;42.700;23.304;2022-09-16T03:27:08;94652.19;;;22.00;100.00
5500;BME280;2772;42.700;23.304;2022-09-16T03:29:40;94642.50;;;21.95;100.00
5500;BME280;2772;42.700;23.304;2022-09-16T03:32:17;94637.44;;;22.01;100.00
5500;BME280;2772;42.700;23.304;2022-09-16T03:34:51;94640.16;;;22.01;100.00
5500;BME280;2772;42.700;23.304;2022-09-16T03:37:19;94636.66;;;22.04;100.00
5500;BME280;2772;42.700;23.304;2022-09-16T03:39:50;94632.38;;;22.06;100.00
5500;BME280;2772;42.700;23.304;2022-09-16T03:42:18;94628.91;;;22.06;100.00
5500;BME280;2772;42.700;23.304;2022-09-16T03:44:45;94629.31;;;22.08;100.00
5500;BME280;2772;42.700;23.304;2022-09-16T03:47:13;94615.34;;;22.09;100.00
5500;BME280;2772;42.700;23.304;2022-09-16T03:49:40;94623.84;;;22.11;100.00
5500;BME280;2772;42.700;23.304;2022-09-16T03:52:08;94609.16;;;21.98;100.00
5500;BME280;2772;42.700;23.304;2022-09-16T03:54:36;94613.06;;;21.93;100.00
5500;BME280;2772;42.700;23.304;2022-09-16T03:57:03;94614.97;;;21.65;100.00
5500;BME280;2772;42.700;23.304;2022-09-16T03:59:30;94618.06;;;21.70;100.00
5500;BME280;2772;42.700;23.304;2022-09-16T04:01:57;94623.88;;;21.69;100.00
5500;BME280;2772;42.700;23.304;2022-09-16T04:04:24;94626.59;;;21.72;100.00
5500;BME280;2772;42.700;23.304;2022-09-16T04:06:51;94630.09;;;21.73;100.00
5500;BME280;2772;42.700;23.304;2022-09-16T04:09:19;94629.69;;;21.71;100.00
5500;BME280;2772;42.700;23.304;2022-09-16T04:11:46;94632.78;;;21.69;100.00
5500;BME280;2772;42.700;23.304;2022-09-16T04:14:13;94635.88;;;21.64;100.00
5500;BME280;2772;42.700;23.304;2022-09-16T04:16:40;94649.06;;;21.73;100.00
5500;BME280;2772;42.700;23.304;2022-09-16T04:19:06;94650.63;;;21.77;100.00
5500;BME280;2772;42.700;23.304;2022-09-16T04:21:33;94673.88;;;21.75;100.00
5500;BME280;2772;42.700;23.304;2022-09-16T04:24:00;94681.59;;;21.73;100.00
5500;BME280;2772;42.700;23.304;2022-09-16T04:26:29;94689.31;;;21.67;100.00
5500;BME280;2772;42.700;23.304;2022-09-16T04:28:55;94674.22;;;21.66;100.00
5500;BME280;2772;42.700;23.304;2022-09-16T04:31:22;94675.78;;;21.67;100.00
5500;BME280;2772;42.700;23.304;2022-09-16T04:33:49;94676.16;;;21.69;100.00
5500;BME280;2772;42.700;23.304;2022-09-16T04:36:18;94676.56;;;21.71;100.00
5500;BME280;2772;42.700;23.304;2022-09-16T04:38:46;94675.44;;;21.76;100.00
5500;BME280;2772;42.700;23.304;2022-09-16T04:41:15;94663.41;;;21.80;100.00
5500;BME280;2772;42.700;23.304;2022-09-16T04:43:43;94665.75;;;21.85;100.00
5500;BME280;2772;42.700;23.304;2022-09-16T04:46:10;94671.53;;;21.91;100.00
5500;BME280;2772;42.700;23.304;2022-09-16T04:48:38;94680.06;;;21.93;100.00
5500;BME280;2772;42.700;23.304;2022-09-16T04:51:06;94682.00;;;21.96;100.00
5500;BME280;2772;42.700;23.304;2022-09-16T04:53:34;94675.03;;;21.95;100.00
5500;BME280;2772;42.700;23.304;2022-09-16T04:56:05;94673.84;;;22.03;100.00
5500;BME280;2772;42.700;23.304;2022-09-16T04:58:32;94676.97;;;22.12;100.00
5500;BME280;2772;42.700;23.304;2022-09-16T05:01:05;94680.84;;;22.08;100.00
5500;BME280;2772;42.700;23.304;2022-09-16T05:03:37;94671.91;;;22.14;100.00
5500;BME280;2772;42.700;23.304;2022-09-16T05:06:09;94671.91;;;22.18;100.00
5500;BME280;2772;42.700;23.304;2022-09-16T05:08:36;94667.25;;;22.22;100.00
5500;BME280;2772;42.700;23.304;2022-09-16T05:11:05;94671.09;;;22.31;100.00
5500;BME280;2772;42.700;23.304;2022-09-16T05:13:33;94668.75;;;22.44;100.00
5500;BME280;2772;42.700;23.304;2022-09-16T05:16:01;94667.19;;;22.53;100.00
5500;BME280;2772;42.700;23.304;2022-09-16T05:18:30;94665.25;;;22.57;100.00
5500;BME280;2772;42.700;23.304;2022-09-16T05:20:58;94657.88;;;22.61;100.00
5500;BME280;2772;42.700;23.304;2022-09-16T05:23:25;94653.97;;;22.73;100.00
5500;BME280;2772;42.700;23.304;2022-09-16T05:25:52;94651.22;;;22.76;100.00
5500;BME280;2772;42.700;23.304;2022-09-16T05:28:19;94658.16;;;22.84;100.00
5500;BME280;2772;42.700;23.304;2022-09-16T05:30:46;94662.84;;;22.84;100.00
5500;BME280;2772;42.700;23.304;2022-09-16T05:33:13;94658.16;;;22.84;100.00
5500;BME280;2772;42.700;23.304;2022-09-16T05:35:41;94652.38;;;22.82;100.00
5500;BME280;2772;42.700;23.304;2022-09-16T05:38:10;94651.97;;;22.84;100.00
5500;BME280;2772;42.700;23.304;2022-09-16T05:40:37;94639.53;;;22.90;100.00
5500;BME280;2772;42.700;23.304;2022-09-16T05:43:04;94641.13;;;22.80;100.00
5500;BME280;2772;42.700;23.304;2022-09-16T05:45:31;94634.50;;;22.81;100.00
5500;BME280;2772;42.700;23.304;2022-09-16T05:47:58;94634.47;;;22.92;100.00
5500;BME280;2772;42.700;23.304;2022-09-16T05:50:24;94641.47;;;22.89;100.00
5500;BME280;2772;42.700;23.304;2022-09-16T05:52:53;94636.81;;;22.93;100.00
5500;BME280;2772;42.700;23.304;2022-09-16T05:55:20;94645.66;;;23.04;100.00
5500;BME280;2772;42.700;23.304;2022-09-16T05:57:47;94646.44;;;23.05;100.00
5500;BME280;2772;42.700;23.304;2022-09-16T06:00:14;94650.66;;;23.13;100.00
5500;BME280;2772;42.700;23.304;2022-09-16T06:02:41;94645.19;;;23.20;100.00
5500;BME280;2772;42.700;23.304;2022-09-16T06:05:08;94644.78;;;23.25;100.00
5500;BME280;2772;42.700;23.304;2022-09-16T06:07:35;94645.94;;;23.27;100.00
5500;BME280;2772;42.700;23.304;2022-09-16T06:10:04;94647.09;;;23.26;100.00
5500;BME280;2772;42.700;23.304;2022-09-16T06:12:31;94645.56;;;23.25;100.00
5500;BME280;2772;42.700;23.304;2022-09-16T06:14:58;94644.69;;;23.39;100.00
5500;BME280;2772;42.700;23.304;2022-09-16T06:17:25;94643.16;;;23.41;97.98
5500;BME280;2772;42.700;23.304;2022-09-16T06:19:52;94645.44;;;23.47;98.41
5500;BME280;2772;42.700;23.304;2022-09-16T06:22:18;94645.78;;;23.52;97.21
5500;BME280;2772;42.700;23.304;2022-09-16T06:24:46;94645.28;;;23.64;98.50
5500;BME280;2772;42.700;23.304;2022-09-16T06:27:15;94636.72;;;23.66;97.18
5500;BME280;2772;42.700;23.304;2022-09-16T06:29:42;94633.63;;;23.67;95.26
5500;BME280;2772;42.700;23.304;2022-09-16T06:32:08;94639.78;;;23.75;91.65
5500;BME280;2772;42.700;23.304;2022-09-16T06:34:35;94642.13;;;23.73;90.04
5500;BME280;2772;42.700;23.304;2022-09-16T06:37:02;94639.75;;;23.78;90.33
5500;BME280;2772;42.700;23.304;2022-09-16T06:39:29;94637.38;;;23.84;94.23
5500;BME280;2772;42.700;23.304;2022-09-16T06:41:56;94645.88;;;23.89;93.00
5500;BME280;2772;42.700;23.304;2022-09-16T06:44:24;94645.03;;;23.96;91.64
5500;BME280;2772;42.700;23.304;2022-09-16T06:46:51;94654.72;;;24.04;90.75
5500;BME280;2772;42.700;23.304;2022-09-16T06:49:18;94650.38;;;24.13;91.51
5500;BME280;2772;42.700;23.304;2022-09-16T06:51:45;94654.88;;;24.27;89.01
5500;BME280;2772;42.700;23.304;2022-09-16T06:54:12;94656.38;;;24.35;87.88
5500;BME280;2772;42.700;23.304;2022-09-16T06:56:39;94651.63;;;24.42;84.44
5500;BME280;2772;42.700;23.304;2022-09-16T06:59:07;94653.09;;;24.50;83.29
5500;BME280;2772;42.700;23.304;2022-09-16T07:01:35;94654.94;;;24.60;82.73
5500;BME280;2772;42.700;23.304;2022-09-16T07:04:04;94653.28;;;24.70;81.90
5500;BME280;2772;42.700;23.304;2022-09-16T07:06:33;94652.44;;;24.76;83.27
5500;BME280;2772;42.700;23.304;2022-09-16T07:08:59;94653.88;;;24.84;79.13
5500;BME280;2772;42.700;23.304;2022-09-16T07:11:26;94655.16;;;24.76;79.60
5500;BME280;2772;42.700;23.304;2022-09-16T07:13:53;94651.84;;;24.92;79.89
5500;BME280;2772;42.700;23.304;2022-09-16T07:16:21;94659.91;;;25.03;80.46
5500;BME280;2772;42.700;23.304;2022-09-16T07:18:53;94656.22;;;25.16;80.28
5500;BME280;2772;42.700;23.304;2022-09-16T07:21:21;94652.56;;;25.26;76.84
5500;BME280;2772;42.700;23.304;2022-09-16T07:23:52;94639.66;;;25.34;76.47
5500;BME280;2772;42.700;23.304;2022-09-16T07:26:21;94641.97;;;25.35;74.47
5500;BME280;2772;42.700;23.304;2022-09-16T07:28:51;94644.22;;;25.40;73.52
5500;BME280;2772;42.700;23.304;2022-09-16T07:31:19;94639.13;;;25.42;73.42
5500;BME280;2772;42.700;23.304;2022-09-16T07:33:49;94643.41;;;25.43;73.67
5500;BME280;2772;42.700;23.304;2022-09-16T07:36:19;94640.97;;;25.49;74.86
5500;BME280;2772;42.700;23.304;2022-09-16T07:38:46;94649.13;;;25.52;74.45
5500;BME280;2772;42.700;23.304;2022-09-16T07:41:14;94633.09;;;25.54;71.95
5500;BME280;2772;42.700;23.304;2022-09-16T07:43:42;94632.63;;;25.59;72.99
5500;BME280;2772;42.700;23.304;2022-09-16T07:46:10;94612.78;;;25.59;72.13
5500;BME280;2772;42.700;23.304;2022-09-16T07:48:38;94621.72;;;25.59;71.70
5500;BME280;2772;42.700;23.304;2022-09-16T07:51:07;94621.66;;;25.63;70.61
5500;BME280;2772;42.700;23.304;2022-09-16T07:53:36;94613.47;;;25.63;70.59
5500;BME280;2772;42.700;23.304;2022-09-16T07:56:05;94632.53;;;25.66;70.11
5500;BME280;2772;42.700;23.304;2022-09-16T07:58:32;94625.84;;;25.71;68.26
5500;BME280;2772;42.700;23.304;2022-09-16T08:00:59;94619.38;;;25.84;69.31
5500;BME280;2772;42.700;23.304;2022-09-16T08:03:26;94612.91;;;25.98;68.08
5500;BME280;2772;42.700;23.304;2022-09-16T08:05:58;94611.13;;;26.11;68.67
5500;BME280;2772;42.700;23.304;2022-09-16T08:08:25;94607.88;;;26.19;68.82
5500;BME280;2772;42.700;23.304;2022-09-16T08:10:54;94605.56;;;26.37;69.38
5500;BME280;2772;42.700;23.304;2022-09-16T08:13:21;94606.72;;;26.40;67.95
5500;BME280;2772;42.700;23.304;2022-09-16T08:15:48;94605.66;;;26.54;68.28
5500;BME280;2772;42.700;23.304;2022-09-16T08:18:14;94601.19;;;26.63;67.24
5500;BME280;2772;42.700;23.304;2022-09-16T08:20:41;94593.84;;;26.80;66.15
5500;BME280;2772;42.700;23.304;2022-09-16T08:23:08;94595.09;;;26.95;65.44
5500;BME280;2772;42.700;23.304;2022-09-16T08:25:35;94584.53;;;27.13;64.98
5500;BME280;2772;42.700;23.304;2022-09-16T08:28:03;94593.28;;;27.24;64.18
5500;BME280;2772;42.700;23.304;2022-09-16T08:30:30;94592.63;;;27.36;62.89
5500;BME280;2772;42.700;23.304;2022-09-16T08:32:57;94589.31;;;27.44;62.69
5500;BME280;2772;42.700;23.304;2022-09-16T08:35:24;94584.53;;;27.48;61.97
5500;BME280;2772;42.700;23.304;2022-09-16T08:37:51;94578.03;;;27.58;62.16
5500;BME280;2772;42.700;23.304;2022-09-16T08:40:22;94586.16;;;27.62;60.91
5500;BME280;2772;42.700;23.304;2022-09-16T08:42:58;94576.56;;;27.70;60.86
5500;BME280;2772;42.700;23.304;2022-09-16T08:45:36;94581.38;;;27.82;60.33
5500;BME280;2772;42.700;23.304;2022-09-16T08:48:19;94575.72;;;27.73;61.56
5500;BME280;2772;42.700;23.304;2022-09-16T08:50:51;94567.84;;;27.75;61.56
5500;BME280;2772;42.700;23.304;2022-09-16T08:53:21;94572.31;;;27.85;62.35
5500;BME280;2772;42.700;23.304;2022-09-16T08:55:52;94568.78;;;27.84;60.54
5500;BME280;2772;42.700;23.304;2022-09-16T08:58:21;94562.88;;;27.86;59.74
5500;BME280;2772;42.700;23.304;2022-09-16T09:00:53;94579.38;;;27.82;60.07
5500;BME280;2772;42.700;23.304;2022-09-16T09:03:32;94575.19;;;27.78;59.63
5500;BME280;2772;42.700;23.304;2022-09-16T09:06:02;94574.53;;;27.74;59.31
5500;BME280;2772;42.700;23.304;2022-09-16T09:08:38;94575.38;;;27.71;60.39
5500;BME280;2772;42.700;23.304;2022-09-16T09:11:14;94583.41;;;27.62;61.00
5500;BME280;2772;42.700;23.304;2022-09-16T09:13:56;94575.38;;;27.55;61.13
5500;BME280;2772;42.700;23.304;2022-09-16T09:16:36;94581.28;;;27.53;61.67
5500;BME280;2772;42.700;23.304;2022-09-16T09:19:16;94572.06;;;27.63;62.16
5500;BME280;2772;42.700;23.304;2022-09-16T09:21:51;94576.56;;;27.70;61.07
5500;BME280;2772;42.700;23.304;2022-09-16T09:24:28;94579.50;;;27.79;60.62
5500;BME280;2772;42.700;23.304;2022-09-16T09:27:03;94571.47;;;27.88;60.85
5500;BME280;2772;42.700;23.304;2022-09-16T09:29:58;94570.41;;;27.98;60.88
5500;BME280;2772;42.700;23.304;2022-09-16T09:32:39;94573.13;;;28.14;60.01
5500;BME280;2772;42.700;23.304;2022-09-16T09:35:20;94562.94;;;28.15;60.10
5500;BME280;2772;42.700;23.304;2022-09-16T09:38:01;94568.88;;;28.13;59.83
5500;BME280;2772;42.700;23.304;2022-09-16T09:40:37;94572.69;;;28.16;58.79
5500;BME280;2772;42.700;23.304;2022-09-16T09:43:10;94582.44;;;28.17;59.03
5500;BME280;2772;42.700;23.304;2022-09-16T09:45:42;94577.66;;;28.21;59.72
5500;BME280;2772;42.700;23.304;2022-09-16T09:48:17;94587.41;;;28.22;60.39
5500;BME280;2772;42.700;23.304;2022-09-16T09:50:46;94586.97;;;28.23;60.23
5500;BME280;2772;42.700;23.304;2022-09-16T09:53:19;94585.09;;;28.20;61.38
5500;BME280;2772;42.700;23.304;2022-09-16T09:55:51;94583.91;;;28.21;62.60
5500;BME280;2772;42.700;23.304;2022-09-16T09:58:27;94600.34;;;28.21;63.38
5500;BME280;2772;42.700;23.304;2022-09-16T10:00:54;94600.97;;;28.13;65.27
5500;BME280;2772;42.700;23.304;2022-09-16T10:03:25;94612.78;;;27.93;67.25
5500;BME280;2772;42.700;23.304;2022-09-16T10:05:53;94628.53;;;27.89;68.64
5500;BME280;2772;42.700;23.304;2022-09-16T10:08:24;94635.84;;;27.76;72.17
5500;BME280;2772;42.700;23.304;2022-09-16T10:10:54;94645.00;;;27.54;74.88
5500;BME280;2772;42.700;23.304;2022-09-16T10:13:23;94649.75;;;27.34;78.38
5500;BME280;2772;42.700;23.304;2022-09-16T10:15:54;94658.03;;;27.11;81.28
5500;BME280;2772;42.700;23.304;2022-09-16T10:18:32;94671.84;;;27.04;85.13
5500;BME280;2772;42.700;23.304;2022-09-16T10:21:03;94704.81;;;26.77;88.79
5500;BME280;2772;42.700;23.304;2022-09-16T10:23:31;94756.13;;;26.43;100.00
5500;BME280;2772;42.700;23.304;2022-09-16T10:26:13;94755.78;;;25.88;98.24
5500;BME280;2772;42.700;23.304;2022-09-16T10:28:55;94777.22;;;25.29;100.00
5500;BME280;2772;42.700;23.304;2022-09-16T10:31:25;94797.78;;;24.96;100.00
5500;BME280;2772;42.700;23.304;2022-09-16T10:33:55;94800.06;;;24.61;100.00
5500;BME280;2772;42.700;23.304;2022-09-16T10:36:23;94805.00;;;24.32;100.00
5500;BME280;2772;42.700;23.304;2022-09-16T10:38:54;94815.31;;;23.97;100.00
5500;BME280;2772;42.700;23.304;2022-09-16T10:41:23;94810.81;;;23.66;100.00
5500;BME280;2772;42.700;23.304;2022-09-16T10:43:53;94808.94;;;23.48;100.00
5500;BME280;2772;42.700;23.304;2022-09-16T10:46:22;94802.44;;;23.18;100.00
5500;BME280;2772;42.700;23.304;2022-09-16T10:48:50;94804.00;;;23.26;100.00
5500;BME280;2772;42.700;23.304;2022-09-16T10:51:23;94788.44;;;23.33;100.00
5500;BME280;2772;42.700;23.304;2022-09-16T10:53:52;94785.75;;;23.19;100.00
5500;BME280;2772;42.700;23.304;2022-09-16T10:56:22;94777.97;;;23.25;100.00
5500;BME280;2772;42.700;23.304;2022-09-16T10:59:00;94757.03;;;23.11;100.00
5500;BME280;2772;42.700;23.304;2022-09-16T11:01:34;94729.84;;;23.18;100.00
5500;BME280;2772;42.700;23.304;2022-09-16T11:04:15;94720.13;;;23.17;100.00
5500;BME280;2772;42.700;23.304;2022-09-16T11:06:59;94713.97;;;23.06;100.00
5500;BME280;2772;42.700;23.304;2022-09-16T11:09:34;94692.19;;;23.13;100.00
5500;BME280;2772;42.700;23.304;2022-09-16T11:12:21;94672.75;;;23.25;100.00
5500;BME280;2772;42.700;23.304;2022-09-16T11:14:58;94655.66;;;23.28;100.00
5500;BME280;2772;42.700;23.304;2022-09-16T11:17:37;94650.00;;;23.60;100.00
5500;BME280;2772;42.700;23.304;2022-09-16T11:23:10;94624.22;;;24.23;100.00
5500;BME280;2772;42.700;23.304;2022-09-16T11:25:44;94614.31;;;24.39;100.00
5500;BME280;2772;42.700;23.304;2022-09-16T11:28:32;94614.41;;;24.66;100.00
5500;BME280;2772;42.700;23.304;2022-09-16T11:31:08;94609.56;;;24.80;100.00
5500;BME280;2772;42.700;23.304;2022-09-16T11:33:43;94599.34;;;24.88;100.00
5500;BME280;2772;42.700;23.304;2022-09-16T11:36:29;94604.28;;;24.96;100.00
5500;BME280;2772;42.700;23.304;2022-09-16T11:39:10;94616.81;;;25.21;100.00
5500;BME280;2772;42.700;23.304;2022-09-16T11:41:44;94610.50;;;25.27;100.00
5500;BME280;2772;42.700;23.304;2022-09-16T11:44:37;94611.19;;;25.35;100.00
5500;BME280;2772;42.700;23.304;2022-09-16T11:47:15;94613.13;;;25.34;100.00
5500;BME280;2772;42.700;23.304;2022-09-16T11:49:57;94611.75;;;25.49;100.00
5500;BME280;2772;42.700;23.304;2022-09-16T11:52:41;94609.97;;;25.62;100.00
5500;BME280;2772;42.700;23.304;2022-09-16T11:55:21;94595.81;;;25.71;100.00
5500;BME280;2772;42.700;23.304;2022-09-16T11:57:54;94585.97;;;25.77;98.39
5500;BME280;2772;42.700;23.304;2022-09-16T12:00:23;94580.72;;;25.86;97.47
5500;BME280;2772;42.700;23.304;2022-09-16T12:02:55;94580.72;;;25.86;98.23
5500;BME280;2772;42.700;23.304;2022-09-16T12:05:28;94590.75;;;25.92;96.49
5500;BME280;2772;42.700;23.304;2022-09-16T12:08:03;94608.22;;;25.98;92.36
5500;BME280;2772;42.700;23.304;2022-09-16T12:10:38;94596.53;;;25.98;95.48
5500;BME280;2772;42.700;23.304;2022-09-16T12:13:11;94607.94;;;25.93;99.92
5500;BME280;2772;42.700;23.304;2022-09-16T12:15:43;94617.19;;;25.99;100.00
5500;BME280;2772;42.700;23.304;2022-09-16T12:18:16;94634.69;;;26.01;100.00
5500;BME280;2772;42.700;23.304;2022-09-16T12:20:45;94613.81;;;25.91;100.00
5500;BME280;2772;42.700;23.304;2022-09-16T12:23:17;94615.94;;;25.80;100.00
5500;BME280;2772;42.700;23.304;2022-09-16T12:25:58;94613.66;;;25.75;100.00
5500;BME280;2772;42.700;23.304;2022-09-16T12:28:30;94616.25;;;25.59;100.00
5500;BME280;2772;42.700;23.304;2022-09-16T12:31:06;94615.78;;;25.41;100.00
5500;BME280;2772;42.700;23.304;2022-09-16T12:33:39;94617.09;;;25.26;100.00
5500;BME280;2772;42.700;23.304;2022-09-16T12:36:11;94605.59;;;25.15;100.00
5500;BME280;2772;42.700;23.304;2022-09-16T12:38:38;94606.06;;;25.10;100.00
5500;BME280;2772;42.700;23.304;2022-09-16T12:41:25;94610.88;;;24.99;100.00
5500;BME280;2772;42.700;23.304;2022-09-16T12:44:17;94612.34;;;25.07;100.00
5500;BME280;2772;42.700;23.304;2022-09-16T12:46:59;94621.53;;;24.90;100.00
5500;BME280;2772;42.700;23.304;2022-09-16T12:52:54;94644.81;;;24.94;100.00
5500;BME280;2772;42.700;23.304;2022-09-16T12:55:38;94649.66;;;24.80;100.00
5500;BME280;2772;42.700;23.304;2022-09-16T12:58:20;94660.72;;;24.62;100.00
5500;BME280;2772;42.700;23.304;2022-09-16T13:00:56;94680.19;;;24.61;100.00
5500;BME280;2772;42.700;23.304;2022-09-16T13:03:27;94691.88;;;24.61;100.00
5500;BME280;2772;42.700;23.304;2022-09-16T13:05:56;94697.38;;;24.54;100.00
5500;BME280;2772;42.700;23.304;2022-09-16T13:08:25;94702.63;;;24.38;100.00
5500;BME280;2772;42.700;23.304;2022-09-16T13:10:56;94712.44;;;24.29;100.00
5500;BME280;2772;42.700;23.304;2022-09-16T13:13:30;94703.38;;;23.95;100.00
5500;BME280;2772;42.700;23.304;2022-09-16T13:16:01;94708.66;;;23.58;100.00
5500;BME280;2772;42.700;23.304;2022-09-16T13:18:40;94714.56;;;23.49;100.00
5500;BME280;2772;42.700;23.304;2022-09-16T13:21:18;94708.03;;;23.36;100.00
5500;BME280;2772;42.700;23.304;2022-09-16T13:23:52;94697.88;;;23.43;100.00
5500;BME280;2772;42.700;23.304;2022-09-16T13:26:19;94711.13;;;23.34;100.00
5500;BME280;2772;42.700;23.304;2022-09-16T13:28:47;94694.41;;;23.39;100.00
5500;BME280;2772;42.700;23.304;2022-09-16T13:31:16;94692.03;;;23.45;100.00
5500;BME280;2772;42.700;23.304;2022-09-16T13:33:45;94688.50;;;23.52;100.00
5500;BME280;2772;42.700;23.304;2022-09-16T13:36:28;94668.00;;;23.40;100.00
5500;BME280;2772;42.700;23.304;2022-09-16T13:38:56;94654.34;;;23.51;100.00